< < Back
Terminal Aerodrome Forecast


Current Version              Previous Versions:   1  2  3  4  5  6  7  8  9  

Terminal Aerodrome Forecast

920
FTUS44 KOHX 202300
TAFCSV
TAF
KCSV 202325Z 2100/2124 00000KT P6SM SCT250
     FM211400 23007KT P6SM SCT060 BKN250=



Latest METAR

015
SAUS70 KWBC 210200 RRD
MTRCSV
METAR KCSV 210153Z AUTO 00000KT 10SM CLR 17/03 A3017 RMK AO2 SLP204
T01720033


USA.gov is the U.S. government's official web portal to all federal, state and local government web resources and services.